createdAt,value
2023-05-01T00:01:36.767Z,101741.40
2023-05-01T00:04:05.760Z,101744.00
2023-05-01T00:06:34.609Z,101739.20
2023-05-01T00:09:03.630Z,101734.60
2023-05-01T00:11:32.112Z,101731.40
2023-05-01T00:14:00.799Z,101733.60
2023-05-01T00:16:29.431Z,101734.60
2023-05-01T00:18:58.080Z,101729.40
2023-05-01T00:21:28.600Z,101726.00
2023-05-01T00:23:57.702Z,101717.00
2023-05-01T00:26:30.691Z,101725.00
2023-05-01T00:28:59.393Z,101726.00
2023-05-01T00:31:28.114Z,101725.40
2023-05-01T00:33:57.159Z,101721.80
2023-05-01T00:36:25.845Z,101721.60
2023-05-01T00:38:54.535Z,101718.00
2023-05-01T00:41:23.422Z,101718.40
2023-05-01T00:43:52.629Z,101717.80
2023-05-01T00:46:22.038Z,101726.40
2023-05-01T00:48:50.712Z,101725.00
2023-05-01T00:51:21.686Z,101720.60
2023-05-01T00:53:50.920Z,101723.40
2023-05-01T00:56:19.643Z,101715.60
2023-05-01T00:58:54.429Z,101712.60
2023-05-01T01:01:24.037Z,101712.40
2023-05-01T01:03:52.802Z,101711.60
2023-05-01T01:06:42.409Z,101713.00
2023-05-01T01:10:05.814Z,101720.60
2023-05-01T01:12:51.306Z,101712.40
2023-05-01T01:15:50.566Z,101712.20
2023-05-01T01:18:44.074Z,101720.80
2023-05-01T01:21:41.731Z,101726.40
2023-05-01T01:25:24.055Z,101723.80
2023-05-01T01:28:31.231Z,101722.40
2023-05-01T01:31:27.606Z,101720.00
2023-05-01T01:34:04.549Z,101720.40
2023-05-01T01:36:59.758Z,101719.60
2023-05-01T01:39:50.060Z,101713.80
2023-05-01T01:42:55.708Z,101712.80
2023-05-01T01:45:34.021Z,101704.80
2023-05-01T01:48:03.852Z,101705.80
2023-05-01T01:50:33.715Z,101704.00
2023-05-01T01:53:04.650Z,101706.40
2023-05-01T01:55:36.502Z,101702.00
2023-05-01T01:58:06.862Z,101704.80
2023-05-01T02:00:37.060Z,101700.40
2023-05-01T02:03:06.161Z,101692.20
2023-05-01T02:05:36.008Z,101694.40
2023-05-01T02:08:05.985Z,101693.20
2023-05-01T02:10:36.620Z,101693.40
2023-05-01T02:13:06.210Z,101692.80
2023-05-01T02:15:35.686Z,101691.60
2023-05-01T02:18:06.266Z,101688.00
2023-05-01T02:20:37.040Z,101690.00
2023-05-01T02:23:08.029Z,101684.60
2023-05-01T02:25:39.662Z,101681.60
2023-05-01T02:28:16.360Z,101681.20
2023-05-01T02:30:45.819Z,101678.20
2023-05-01T02:33:14.399Z,101676.60
2023-05-01T02:35:44.675Z,101672.40
2023-05-01T02:38:15.269Z,101672.00
2023-05-01T02:40:50.755Z,101666.40
2023-05-01T02:43:22.959Z,101664.60
2023-05-01T02:45:53.937Z,101664.60
2023-05-01T02:48:27.765Z,101660.60
2023-05-01T02:50:57.480Z,101658.80
2023-05-01T02:53:26.020Z,101657.80
2023-05-01T02:55:59.630Z,101655.00
2023-05-01T02:58:32.938Z,101652.80
2023-05-01T03:01:01.524Z,101649.80
2023-05-01T03:03:30.367Z,101651.40
2023-05-01T03:05:59.539Z,101650.60
2023-05-01T03:08:28.323Z,101650.00
2023-05-01T03:10:56.782Z,101648.40
2023-05-01T03:13:25.855Z,101644.40
2023-05-01T03:15:54.593Z,101640.80
2023-05-01T03:18:23.231Z,101641.20
2023-05-01T03:20:57.064Z,101643.00
2023-05-01T03:23:26.434Z,101647.00
2023-05-01T03:25:55.132Z,101646.20
2023-05-01T03:28:24.360Z,101645.40
2023-05-01T03:30:53.730Z,101648.40
2023-05-01T03:33:22.613Z,101647.60
2023-05-01T03:36:04.437Z,101640.80
2023-05-01T03:38:34.220Z,101630.60
2023-05-01T03:41:11.719Z,101626.80
2023-05-01T03:44:18.913Z,101635.40
2023-05-01T03:46:47.644Z,101631.60
2023-05-01T03:49:21.600Z,101630.80
2023-05-01T03:51:51.112Z,101632.20
2023-05-01T03:54:19.908Z,101629.80
2023-05-01T03:57:01.187Z,101631.40
2023-05-01T03:59:29.869Z,101628.60
2023-05-01T04:01:58.523Z,101627.20
2023-05-01T04:04:30.016Z,101620.60
2023-05-01T04:06:59.719Z,101619.60
2023-05-01T04:09:30.146Z,101613.80
2023-05-01T04:11:59.140Z,101609.00
2023-05-01T04:14:29.570Z,101605.20
2023-05-01T04:16:58.974Z,101603.00
2023-05-01T04:19:28.580Z,101592.00
2023-05-01T04:21:59.519Z,101586.60
2023-05-01T04:24:28.318Z,101588.80
2023-05-01T04:26:56.995Z,101582.40
2023-05-01T04:29:25.897Z,101582.20
2023-05-01T04:31:54.740Z,101579.80
2023-05-01T04:34:23.596Z,101570.80
2023-05-01T04:36:53.481Z,101572.40
2023-05-01T04:39:22.167Z,101568.20
2023-05-01T04:41:51.061Z,101559.40
2023-05-01T04:44:19.748Z,101560.40
2023-05-01T04:46:48.672Z,101555.40
2023-05-01T04:49:17.733Z,101553.20
2023-05-01T04:51:46.743Z,101546.00
2023-05-01T04:54:16.238Z,101543.40
2023-05-01T04:56:45.437Z,101542.40
2023-05-01T04:59:14.121Z,101533.80
2023-05-01T05:01:42.666Z,101529.20
2023-05-01T05:04:11.654Z,101527.80
2023-05-01T05:06:40.536Z,101517.60
2023-05-01T05:09:13.274Z,101514.00
2023-05-01T05:11:41.957Z,101504.20
2023-05-01T05:14:14.637Z,101508.60
2023-05-01T05:16:43.513Z,101502.60
2023-05-01T05:19:12.118Z,101496.00
2023-05-01T05:21:42.950Z,101488.60
2023-05-01T05:24:11.749Z,101489.20
2023-05-01T05:26:40.431Z,101488.80
2023-05-01T05:29:09.142Z,101480.20
2023-05-01T05:31:38.071Z,101474.00
2023-05-01T05:34:06.999Z,101475.40
2023-05-01T05:36:36.196Z,101469.20
2023-05-01T05:39:04.891Z,101463.40
2023-05-01T05:41:34.083Z,101461.60
2023-05-01T05:44:03.799Z,101450.80
2023-05-01T05:46:33.361Z,101449.80
2023-05-01T05:49:02.395Z,101441.80
2023-05-01T05:51:32.109Z,101438.20
2023-05-01T05:54:01.205Z,101433.00
2023-05-01T05:56:31.223Z,101431.40
2023-05-01T05:59:03.708Z,101426.00
2023-05-01T06:01:32.799Z,101422.20
2023-05-01T06:04:01.690Z,101422.80
2023-05-01T06:06:33.056Z,101423.00
2023-05-01T06:09:03.672Z,101419.40
2023-05-01T06:11:32.563Z,101411.40
2023-05-01T06:14:03.094Z,101412.80
2023-05-01T06:16:32.159Z,101408.00
2023-05-01T06:19:00.984Z,101406.40
2023-05-01T06:21:29.769Z,101398.60
2023-05-01T06:23:58.774Z,101392.60
2023-05-01T06:26:31.650Z,101394.60
2023-05-01T06:29:00.237Z,101392.40
2023-05-01T06:31:29.579Z,101390.60
2023-05-01T06:33:58.727Z,101389.60
2023-05-01T06:36:34.074Z,101379.80
2023-05-01T06:39:03.988Z,101378.60
2023-05-01T06:41:34.622Z,101377.20
2023-05-01T06:44:03.204Z,101373.60
2023-05-01T06:46:32.557Z,101362.80
2023-05-01T06:49:01.400Z,101361.20
2023-05-01T06:51:31.823Z,101349.60
2023-05-01T06:54:00.410Z,101350.20
2023-05-01T06:56:29.196Z,101347.40
2023-05-01T06:58:58.194Z,101345.80
2023-05-01T07:01:27.084Z,101346.40
2023-05-01T07:03:55.669Z,101346.00
2023-05-01T07:06:24.489Z,101341.00
2023-05-01T07:08:53.247Z,101337.40
2023-05-01T07:11:21.761Z,101341.20
2023-05-01T07:13:50.415Z,101336.40
2023-05-01T07:16:19.081Z,101337.80
2023-05-01T07:18:47.896Z,101333.00
2023-05-01T07:21:16.489Z,101331.00
2023-05-01T07:23:45.168Z,101323.20
2023-05-01T07:26:14.158Z,101332.80
2023-05-01T07:28:42.743Z,101328.40
2023-05-01T07:31:11.431Z,101326.40
2023-05-01T07:33:40.015Z,101320.60
2023-05-01T07:36:09.529Z,101321.00
2023-05-01T07:38:38.013Z,101313.60
2023-05-01T07:41:06.792Z,101318.80
2023-05-01T07:43:35.422Z,101320.00
2023-05-01T07:46:04.345Z,101316.20
2023-05-01T07:48:33.182Z,101320.20
2023-05-01T07:51:05.447Z,101320.00
2023-05-01T07:53:34.215Z,101320.20
2023-05-01T07:56:10.296Z,101319.40
2023-05-01T07:58:41.324Z,101315.60
2023-05-01T08:01:10.008Z,101315.80
2023-05-01T08:03:38.910Z,101315.80
2023-05-01T08:06:07.927Z,101310.40
2023-05-01T08:08:36.597Z,101310.00
2023-05-01T08:11:05.325Z,101308.60
2023-05-01T08:13:34.093Z,101310.00
2023-05-01T08:16:04.321Z,101306.20
2023-05-01T08:18:32.967Z,101311.00
2023-05-01T08:21:02.918Z,101305.00
2023-05-01T08:23:31.706Z,101309.20
2023-05-01T08:26:00.364Z,101305.40
2023-05-01T08:28:29.156Z,101311.40
2023-05-01T08:30:57.755Z,101310.80
2023-05-01T08:33:26.723Z,101316.60
2023-05-01T08:35:55.255Z,101314.80
2023-05-01T08:38:24.418Z,101305.00
2023-05-01T08:40:54.648Z,101306.20
2023-05-01T08:43:24.596Z,101312.00
2023-05-01T08:45:55.588Z,101314.40
2023-05-01T08:48:25.711Z,101309.20
2023-05-01T08:50:59.601Z,101307.20
2023-05-01T08:53:29.939Z,101307.60
2023-05-01T08:55:59.448Z,101302.00
2023-05-01T08:58:29.220Z,101302.00
2023-05-01T09:00:58.870Z,101304.00
2023-05-01T09:03:29.797Z,101298.80
2023-05-01T09:06:00.345Z,101297.40
2023-05-01T09:08:28.813Z,101296.20
2023-05-01T09:10:59.462Z,101293.60
2023-05-01T09:13:28.038Z,101280.40
2023-05-01T09:15:56.767Z,101280.60
2023-05-01T09:18:25.713Z,101284.00
2023-05-01T09:20:55.632Z,101275.20
2023-05-01T09:23:24.118Z,101268.00
2023-05-01T09:25:53.482Z,101266.00
2023-05-01T09:28:49.647Z,101263.60
2023-05-01T09:31:23.161Z,101262.00
2023-05-01T09:34:02.918Z,101259.20
2023-05-01T09:36:34.282Z,101254.20
2023-05-01T09:39:04.284Z,101259.60
2023-05-01T09:41:33.783Z,101253.20
2023-05-01T09:44:02.459Z,101252.20
2023-05-01T09:46:42.423Z,101250.40
2023-05-01T09:49:10.886Z,101243.00
2023-05-01T09:51:39.880Z,101243.80
2023-05-01T09:54:20.373Z,101239.80
2023-05-01T09:56:49.775Z,101241.40
2023-05-01T09:59:21.023Z,101240.80
2023-05-01T10:01:50.963Z,101239.20
2023-05-01T10:04:36.595Z,101234.00
2023-05-01T10:07:15.009Z,101231.40
2023-05-01T10:09:43.501Z,101224.20
2023-05-01T10:12:24.723Z,101220.80
2023-05-01T10:14:54.951Z,101213.80
2023-05-01T10:17:24.261Z,101221.00
2023-05-01T10:19:53.333Z,101208.00
2023-05-01T10:22:22.117Z,101213.20
2023-05-01T10:24:51.193Z,101207.00
2023-05-01T10:27:22.645Z,101200.40
2023-05-01T10:29:55.473Z,101194.40
2023-05-01T10:32:24.314Z,101191.60
2023-05-01T10:35:02.078Z,101186.80
2023-05-01T10:37:46.785Z,101183.40
2023-05-01T10:40:43.542Z,101184.60
2023-05-01T10:43:28.933Z,101181.00
2023-05-01T10:46:10.793Z,101175.80
2023-05-01T10:48:41.115Z,101167.60
2023-05-01T10:51:22.773Z,101167.00
2023-05-01T10:54:28.948Z,101161.20
2023-05-01T10:57:01.415Z,101157.60
2023-05-01T11:00:00.829Z,101154.60
2023-05-01T11:02:31.004Z,101151.00
2023-05-01T11:05:00.216Z,101148.80
2023-05-01T11:07:29.479Z,101148.00
2023-05-01T11:09:59.285Z,101144.80
2023-05-01T11:12:49.409Z,101140.20
2023-05-01T11:15:34.860Z,101129.20
2023-05-01T11:18:06.422Z,101123.40
2023-05-01T11:20:37.775Z,101120.20
2023-05-01T11:23:07.291Z,101111.00
2023-05-01T11:25:35.749Z,101104.60
2023-05-01T11:28:06.973Z,101104.40
2023-05-01T11:30:42.497Z,101095.60
2023-05-01T11:33:11.476Z,101090.40
2023-05-01T11:35:41.383Z,101087.40
2023-05-01T11:38:21.746Z,101089.20
2023-05-01T11:41:00.438Z,101088.40
2023-05-01T11:43:29.226Z,101095.20
2023-05-01T11:46:02.997Z,101087.00
2023-05-01T11:48:32.886Z,101071.60
2023-05-01T11:51:01.737Z,101068.40
2023-05-01T11:53:30.564Z,101060.00
2023-05-01T11:56:01.248Z,101063.80
2023-05-01T11:58:34.694Z,101055.40
2023-05-01T12:01:03.751Z,101046.20
2023-05-01T12:03:45.763Z,101040.20
2023-05-01T12:06:15.363Z,101035.60
2023-05-01T12:08:53.466Z,101034.00
2023-05-01T12:11:24.331Z,101023.60
2023-05-01T12:13:53.506Z,101020.60
2023-05-01T12:16:22.250Z,101023.00
2023-05-01T12:18:51.289Z,101018.00
2023-05-01T12:21:20.178Z,101020.40
2023-05-01T12:23:50.438Z,101012.60
2023-05-01T12:26:23.853Z,101009.60
2023-05-01T12:29:01.367Z,101001.40
2023-05-01T12:31:30.560Z,101002.00
2023-05-01T12:34:06.960Z,101000.00
2023-05-01T12:36:37.422Z,100998.00
2023-05-01T12:39:09.434Z,100992.40
2023-05-01T12:41:48.860Z,100988.00
2023-05-01T12:44:26.529Z,100980.00
2023-05-01T12:47:04.208Z,100973.40
2023-05-01T12:49:33.500Z,100967.00
2023-05-01T12:52:03.864Z,100969.00
2023-05-01T12:54:38.386Z,100967.20
2023-05-01T12:57:10.616Z,100968.60
2023-05-01T12:59:41.602Z,100958.60
2023-05-01T13:02:16.302Z,100952.80
2023-05-01T13:04:47.214Z,100955.40
2023-05-01T13:07:20.236Z,100955.60
2023-05-01T13:09:59.031Z,100958.00
2023-05-01T13:12:29.019Z,100946.20
2023-05-01T13:14:58.299Z,100946.40
2023-05-01T13:17:32.415Z,100936.40
2023-05-01T13:20:04.351Z,100932.20
2023-05-01T13:22:38.659Z,100927.80
2023-05-01T13:25:20.676Z,100931.40
2023-05-01T13:27:53.906Z,100920.60
2023-05-01T13:30:33.383Z,100919.60
2023-05-01T13:33:02.237Z,100913.20
2023-05-01T13:35:31.900Z,100914.00
2023-05-01T13:38:03.832Z,100911.60
2023-05-01T13:40:34.481Z,100912.20
2023-05-01T13:43:03.459Z,100911.40
2023-05-01T13:45:32.399Z,100908.20
2023-05-01T13:48:03.248Z,100908.40
2023-05-01T13:50:31.882Z,100905.80
2023-05-01T13:53:00.664Z,100909.20
2023-05-01T13:55:29.557Z,100910.40
2023-05-01T13:57:58.139Z,100911.00
2023-05-01T14:00:27.452Z,100899.00
2023-05-01T14:02:56.886Z,100889.60
2023-05-01T14:05:31.034Z,100889.20
2023-05-01T14:07:59.953Z,100887.20
2023-05-01T14:10:29.886Z,100885.40
2023-05-01T14:12:59.711Z,100878.00
2023-05-01T14:15:29.889Z,100873.20
2023-05-01T14:18:01.270Z,100867.40
2023-05-01T14:20:30.047Z,100864.40
2023-05-01T14:23:00.266Z,100852.80
2023-05-01T14:25:31.870Z,100854.60
2023-05-01T14:28:06.300Z,100866.00
2023-05-01T14:30:40.057Z,100861.60
2023-05-01T14:33:12.134Z,100856.00
2023-05-01T14:35:59.038Z,100855.00
2023-05-01T14:38:35.601Z,100849.60
2023-05-01T14:41:04.195Z,100846.80
2023-05-01T14:43:34.347Z,100837.60
2023-05-01T14:46:02.971Z,100830.20
2023-05-01T14:48:37.462Z,100828.40
2023-05-01T14:51:12.646Z,100834.80
2023-05-01T14:53:44.419Z,100827.80
2023-05-01T14:56:13.636Z,100826.20
2023-05-01T14:58:42.209Z,100819.20
2023-05-01T15:01:11.102Z,100817.40
2023-05-01T15:03:41.798Z,100820.80
2023-05-01T15:06:10.952Z,100809.60
2023-05-01T15:08:39.648Z,100808.60
2023-05-01T15:11:09.026Z,100808.20
2023-05-01T15:13:37.605Z,100804.40
2023-05-01T15:16:08.502Z,100811.00
2023-05-01T15:18:37.803Z,100807.00
2023-05-01T15:21:06.545Z,100809.00
2023-05-01T15:23:35.146Z,100805.00
2023-05-01T15:26:04.221Z,100803.00
2023-05-01T15:28:33.249Z,100807.60
2023-05-01T15:31:02.516Z,100804.00
2023-05-01T15:33:31.021Z,100806.20
2023-05-01T15:35:59.786Z,100802.00
2023-05-01T15:38:28.703Z,100805.00
2023-05-01T15:40:57.469Z,100802.00
2023-05-01T15:43:26.049Z,100804.40
2023-05-01T15:45:59.564Z,100803.60
2023-05-01T15:48:28.345Z,100797.00
2023-05-01T15:50:57.033Z,100799.80
2023-05-01T15:53:25.710Z,100792.00
2023-05-01T15:55:58.630Z,100790.80
2023-05-01T15:58:27.177Z,100797.00
2023-05-01T16:00:55.799Z,100796.40
2023-05-01T16:03:25.450Z,100796.80
2023-05-01T16:05:54.161Z,100790.00
2023-05-01T16:08:22.850Z,100795.00
2023-05-01T16:10:51.939Z,100788.40
2023-05-01T16:13:20.938Z,100784.80
2023-05-01T16:15:49.413Z,100778.80
2023-05-01T16:18:24.935Z,100778.00
2023-05-01T16:20:54.971Z,100783.00
2023-05-01T16:23:26.925Z,100780.80
2023-05-01T16:25:55.428Z,100782.60
2023-05-01T16:28:26.428Z,100776.40
2023-05-01T16:30:54.968Z,100778.80
2023-05-01T16:33:23.948Z,100769.80
2023-05-01T16:35:52.526Z,100770.40
2023-05-01T16:38:21.423Z,100768.00
2023-05-01T16:40:50.004Z,100764.20
2023-05-01T16:43:18.614Z,100769.60
2023-05-01T16:45:48.346Z,100769.20
2023-05-01T16:48:23.437Z,100775.20
2023-05-01T16:50:52.238Z,100776.00
2023-05-01T16:53:22.550Z,100771.60
2023-05-01T16:55:51.340Z,100771.40
2023-05-01T16:58:20.946Z,100770.60
2023-05-01T17:00:49.432Z,100776.40
2023-05-01T17:03:18.033Z,100773.80
2023-05-01T17:05:46.717Z,100772.00
2023-05-01T17:08:15.285Z,100774.20
2023-05-01T17:10:45.337Z,100779.00
2023-05-01T17:13:16.041Z,100777.20
2023-05-01T17:15:44.684Z,100774.20
2023-05-01T17:18:13.311Z,100773.20
2023-05-01T17:20:41.992Z,100773.40
2023-05-01T17:23:10.577Z,100772.40
2023-05-01T17:25:39.372Z,100766.60
2023-05-01T17:28:07.851Z,100769.80
2023-05-01T17:30:36.536Z,100774.80
2023-05-01T17:33:05.282Z,100767.80
2023-05-01T17:35:34.236Z,100770.80
2023-05-01T17:38:03.017Z,100769.00
2023-05-01T17:40:32.619Z,100772.40
2023-05-01T17:43:01.534Z,100770.60
2023-05-01T17:45:30.165Z,100773.60
2023-05-01T17:47:58.852Z,100775.40
2023-05-01T17:50:28.393Z,100778.60
2023-05-01T17:52:57.285Z,100776.60
2023-05-01T17:55:26.758Z,100777.60
2023-05-01T17:57:55.895Z,100780.40
2023-05-01T18:00:24.673Z,100777.80
2023-05-01T18:02:53.440Z,100777.60
2023-05-01T18:05:22.964Z,100782.00
2023-05-01T18:07:51.562Z,100780.40
2023-05-01T18:10:20.134Z,100784.00
2023-05-01T18:12:50.149Z,100786.40
2023-05-01T18:15:22.578Z,100782.80
2023-05-01T18:17:52.240Z,100782.60
2023-05-01T18:20:21.562Z,100784.40
2023-05-01T18:22:50.686Z,100788.80
2023-05-01T18:25:20.351Z,100789.00
2023-05-01T18:27:49.446Z,100786.00
2023-05-01T18:30:18.250Z,100791.00
2023-05-01T18:32:48.784Z,100789.20
2023-05-01T18:35:19.068Z,100791.00
2023-05-01T18:37:47.883Z,100791.60
2023-05-01T18:40:16.689Z,100792.60
2023-05-01T18:42:45.462Z,100790.80
2023-05-01T18:45:14.366Z,100794.40
2023-05-01T18:47:43.084Z,100792.20
2023-05-01T18:50:12.149Z,100794.40
2023-05-01T18:52:42.463Z,100794.60
2023-05-01T18:55:11.861Z,100793.20
2023-05-01T18:57:44.541Z,100787.60
2023-05-01T19:00:16.941Z,100787.00
2023-05-01T19:02:51.518Z,100788.20
2023-05-01T19:05:22.688Z,100787.00
2023-05-01T19:07:52.191Z,100787.00
2023-05-01T19:10:21.084Z,100793.20
2023-05-01T19:12:49.672Z,100791.60
2023-05-01T19:15:18.351Z,100790.80
2023-05-01T19:17:47.113Z,100790.00
2023-05-01T19:20:16.263Z,100788.60
2023-05-01T19:22:44.830Z,100785.40
2023-05-01T19:25:13.505Z,100782.80
2023-05-01T19:27:42.602Z,100784.60
2023-05-01T19:30:11.990Z,100787.40
2023-05-01T19:32:40.771Z,100784.40
2023-05-01T19:35:11.757Z,100786.20
2023-05-01T19:37:40.320Z,100785.00
2023-05-01T19:40:09.856Z,100784.40
2023-05-01T19:42:38.419Z,100784.40
2023-05-01T19:45:08.232Z,100786.80
2023-05-01T19:47:36.834Z,100787.60
2023-05-01T19:50:06.889Z,100788.40
2023-05-01T19:52:35.740Z,100788.40
2023-05-01T19:55:05.810Z,100789.00
2023-05-01T19:57:34.323Z,100789.80
2023-05-01T20:00:03.418Z,100791.00
2023-05-01T20:02:39.608Z,100785.00
2023-05-01T20:05:09.195Z,100780.40
2023-05-01T20:07:37.778Z,100782.40
2023-05-01T20:10:07.520Z,100779.20
2023-05-01T20:12:36.276Z,100781.20
2023-05-01T20:15:05.969Z,100782.20
2023-05-01T20:17:35.650Z,100777.60
2023-05-01T20:20:05.122Z,100778.00
2023-05-01T20:22:34.103Z,100777.20
2023-05-01T20:25:02.681Z,100778.40
2023-05-01T20:27:31.480Z,100778.40
2023-05-01T20:30:00.340Z,100771.20
2023-05-01T20:32:29.503Z,100771.40
2023-05-01T20:34:58.151Z,100777.20
2023-05-01T20:37:26.959Z,100774.00
2023-05-01T20:39:55.555Z,100768.20
2023-05-01T20:42:24.722Z,100774.80
2023-05-01T20:44:53.309Z,100776.00
2023-05-01T20:47:21.902Z,100773.60
2023-05-01T20:49:50.680Z,100778.20
2023-05-01T20:52:20.687Z,100778.80
2023-05-01T20:54:49.171Z,100784.60
2023-05-01T20:57:17.857Z,100777.20
2023-05-01T20:59:51.076Z,100778.00
2023-05-01T21:02:19.741Z,100777.00
2023-05-01T21:04:48.331Z,100777.00
2023-05-01T21:07:17.009Z,100778.60
2023-05-01T21:09:46.533Z,100778.80
2023-05-01T21:12:15.305Z,100776.00
2023-05-01T21:14:44.008Z,100774.60
2023-05-01T21:17:13.088Z,100776.00
2023-05-01T21:19:48.360Z,100773.60
2023-05-01T21:22:22.255Z,100781.60
2023-05-01T21:25:00.583Z,100780.60
2023-05-01T21:27:29.140Z,100779.40
2023-05-01T21:30:00.517Z,100784.00
2023-05-01T21:32:40.608Z,100785.20
2023-05-01T21:35:10.813Z,100783.40
2023-05-01T21:37:40.582Z,100784.20
2023-05-01T21:40:13.483Z,100784.20
2023-05-01T21:42:42.153Z,100786.00
2023-05-01T21:45:14.131Z,100786.20
2023-05-01T21:47:48.512Z,100781.60
2023-05-01T21:50:19.976Z,100781.00
2023-05-01T21:52:50.052Z,100783.20
2023-05-01T21:55:23.175Z,100781.60
2023-05-01T21:57:53.536Z,100783.40
2023-05-01T22:00:22.544Z,100778.40
2023-05-01T22:02:52.319Z,100777.40
2023-05-01T22:05:23.130Z,100778.00
2023-05-01T22:07:53.012Z,100777.40
2023-05-01T22:10:21.791Z,100782.60
2023-05-01T22:12:50.557Z,100777.60
2023-05-01T22:15:19.466Z,100781.40
2023-05-01T22:17:48.156Z,100781.00
2023-05-01T22:20:16.825Z,100781.80
2023-05-01T22:22:45.512Z,100782.40
2023-05-01T22:25:14.405Z,100780.80
2023-05-01T22:27:42.881Z,100776.00
2023-05-01T22:30:12.451Z,100782.00
2023-05-01T22:32:41.108Z,100783.20
2023-05-01T22:35:10.584Z,100784.00
2023-05-01T22:37:39.182Z,100782.40
2023-05-01T22:40:09.232Z,100783.00
2023-05-01T22:42:37.771Z,100788.40
2023-05-01T22:45:07.471Z,100786.00
2023-05-01T22:47:36.365Z,100786.20
2023-05-01T22:50:06.028Z,100789.40
2023-05-01T22:52:34.565Z,100794.40
2023-05-01T22:55:03.368Z,100790.80
2023-05-01T22:57:31.840Z,100789.00
2023-05-01T23:00:00.948Z,100790.40
2023-05-01T23:02:30.014Z,100792.80
2023-05-01T23:04:58.818Z,100791.00
2023-05-01T23:07:27.403Z,100789.60
2023-05-01T23:09:56.740Z,100790.40
2023-05-01T23:12:26.127Z,100793.80
2023-05-01T23:14:55.717Z,100790.00
2023-05-01T23:17:27.333Z,100787.60
2023-05-01T23:19:58.781Z,100787.40
2023-05-01T23:22:30.273Z,100787.20
2023-05-01T23:24:58.753Z,100779.40
2023-05-01T23:27:27.678Z,100780.80
2023-05-01T23:29:58.709Z,100779.00
2023-05-01T23:32:32.118Z,100778.60
2023-05-01T23:35:12.959Z,100784.00
2023-05-01T23:37:42.059Z,100777.00
2023-05-01T23:40:11.369Z,100777.00
2023-05-01T23:42:40.210Z,100774.80
2023-05-01T23:45:09.857Z,100774.60
2023-05-01T23:47:39.113Z,100771.80
2023-05-01T23:50:08.665Z,100770.40
2023-05-01T23:52:37.519Z,100772.80
2023-05-01T23:55:06.350Z,100775.20
2023-05-01T23:57:34.828Z,100773.60
